Time;durP1;ratioP1;P1;durP2;ratioP2;P2;SDS_P1;SDS_P2;PMS_P1;PMS_P2;Temp;Humidity;BMP_temperature;BMP_pressure;BME280_temperature;BME280_humidity;BME280_pressure;Samples;Min_cycle;Max_cycle;Signal;HPM_P1;HPM_P2
2024/01/01 00:00:02;;;;;;;21.40;10.80;;;;;;;12.58;33.41;100604.77;105274;1256;63857;-48
2024/01/01 00:02:38;;;;;;;20.50;9.40;;;;;;;12.54;33.53;100600.02;105519;1256;60530;-49
2024/01/01 00:05:07;;;;;;;18.70;11.50;;;;;;;12.47;33.65;100596.27;105622;1253;60485;-49
2024/01/01 00:07:34;;;;;;;22.10;10.00;;;;;;;12.40;33.75;100592.41;105622;1259;65252;-49
2024/01/01 00:10:03;;;;;;;17.70;9.20;;;;;;;12.37;33.87;100593.53;105246;1259;60412;-49
2024/01/01 00:12:33;;;;;;;23.20;9.60;;;;;;;12.35;34.00;100594.40;105699;1254;63825;-49
2024/01/01 00:15:00;;;;;;;16.70;8.10;;;;;;;12.32;34.05;100595.92;105820;1253;60531;-49
2024/01/01 00:17:28;;;;;;;15.60;8.00;;;;;;;12.32;34.15;100594.83;105694;1259;60323;-50
2024/01/01 00:19:56;;;;;;;20.60;9.40;;;;;;;12.35;33.99;100593.20;105231;1253;65065;-49
2024/01/01 00:22:23;;;;;;;16.20;8.70;;;;;;;12.23;34.08;100587.67;105191;1254;61396;-50
2024/01/01 00:24:51;;;;;;;18.10;6.90;;;;;;;12.17;34.18;100576.91;105322;1254;63772;-49
2024/01/01 00:27:19;;;;;;;9.30;3.80;;;;;;;12.20;34.27;100574.73;105283;1254;60480;-48
2024/01/01 00:29:46;;;;;;;11.70;4.50;;;;;;;12.30;34.18;100569.54;105373;1254;60556;-48
2024/01/01 00:32:14;;;;;;;11.90;4.60;;;;;;;12.39;34.09;100566.32;106988;1253;64893;-48
2024/01/01 00:34:44;;;;;;;10.80;5.60;;;;;;;12.47;34.11;100564.41;105228;1260;61290;-48
2024/01/01 00:37:11;;;;;;;10.70;4.10;;;;;;;12.55;34.12;100572.66;105465;1253;63717;-50
2024/01/01 00:39:40;;;;;;;9.50;4.60;;;;;;;12.62;34.14;100579.28;105413;1255;60498;-49
2024/01/01 00:42:07;;;;;;;16.90;6.90;;;;;;;12.72;34.28;100574.23;105290;1254;60542;-48
2024/01/01 00:44:35;;;;;;;14.70;8.00;;;;;;;12.79;34.10;100568.66;105584;1253;65122;-49
2024/01/01 00:47:03;;;;;;;17.80;8.70;;;;;;;12.79;33.96;100574.87;105754;1253;61335;-48
2024/01/01 00:49:31;;;;;;;15.20;6.50;;;;;;;12.78;33.83;100573.54;105713;1253;63676;-48
2024/01/01 00:51:59;;;;;;;13.60;7.90;;;;;;;12.75;33.79;100573.39;105302;1258;60489;-49
2024/01/01 00:54:28;;;;;;;15.60;7.90;;;;;;;12.73;33.80;100569.90;105259;1254;60579;-49
2024/01/01 00:56:57;;;;;;;13.10;7.30;;;;;;;12.73;33.76;100564.83;105878;1253;63736;-49
2024/01/01 00:59:25;;;;;;;18.30;7.30;;;;;;;12.71;33.86;100545.29;105809;1254;61896;-50
2024/01/01 01:01:53;;;;;;;13.40;6.60;;;;;;;12.67;34.04;100542.95;105910;1254;63720;-50
2024/01/01 01:04:20;;;;;;;13.90;6.50;;;;;;;12.69;34.25;100536.52;105282;1259;60553;-49
2024/01/01 01:06:48;;;;;;;21.30;6.70;;;;;;;12.73;34.40;100547.07;105219;1260;60422;-48
2024/01/01 01:09:16;;;;;;;16.30;9.00;;;;;;;12.75;34.51;100545.40;106036;1253;65053;-48
2024/01/01 01:11:44;;;;;;;15.90;7.10;;;;;;;12.77;34.44;100545.41;105340;1254;61891;-49
2024/01/01 01:14:11;;;;;;;18.40;8.00;;;;;;;12.80;34.49;100540.79;105266;1254;63699;-49
2024/01/01 01:16:39;;;;;;;17.00;8.20;;;;;;;12.82;34.44;100533.20;105343;1256;60616;-48
2024/01/01 01:19:06;;;;;;;18.40;6.40;;;;;;;12.86;34.48;100532.33;105337;1254;60329;-47
2024/01/01 01:21:34;;;;;;;11.30;6.10;;;;;;;12.91;34.56;100535.64;105352;1254;63838;-46
2024/01/01 01:24:02;;;;;;;9.50;4.30;;;;;;;12.96;34.41;100537.61;105295;1253;61385;-49
2024/01/01 01:26:30;;;;;;;12.00;4.80;;;;;;;13.02;34.16;100542.57;105732;1254;63818;-50
2024/01/01 01:28:57;;;;;;;11.70;4.60;;;;;;;13.02;34.20;100547.69;105203;1256;61628;-50
2024/01/01 01:31:25;;;;;;;12.10;4.40;;;;;;;13.12;34.26;100551.17;106454;1253;60665;-49
2024/01/01 01:33:53;;;;;;;14.30;5.60;;;;;;;13.24;34.27;100549.67;105266;1253;64865;-48
2024/01/01 01:36:21;;;;;;;11.00;5.00;;;;;;;13.37;34.20;100546.58;105339;1253;61345;-48
2024/01/01 01:38:48;;;;;;;11.70;5.70;;;;;;;13.47;34.16;100543.95;105435;1253;63639;-49
2024/01/01 01:41:16;;;;;;;14.50;7.50;;;;;;;13.47;34.12;100542.20;105272;1254;60622;-50
2024/01/01 01:43:43;;;;;;;10.50;5.60;;;;;;;13.49;34.09;100537.76;105335;1253;60534;-48
2024/01/01 01:46:12;;;;;;;16.10;7.80;;;;;;;13.52;34.06;100534.80;105553;1253;430674;-48
2024/01/01 01:49:57;;;;;;;17.20;7.10;;;;;;;11.51;37.68;100537.54;102404;1294;599658;-48
2024/01/01 01:52:24;;;;;;;13.20;6.70;;;;;;;13.05;35.00;100530.36;105077;1265;59385;-48
2024/01/01 01:54:54;;;;;;;20.90;8.20;;;;;;;13.27;34.55;100517.98;105051;1267;59315;-49
2024/01/01 01:57:21;;;;;;;16.90;8.20;;;;;;;13.34;34.56;100516.35;104500;1272;63404;-49
2024/01/01 01:59:49;;;;;;;14.90;8.10;;;;;;;13.37;34.57;100515.36;104498;1271;60167;-48
2024/01/01 02:02:17;;;;;;;17.00;7.50;;;;;;;13.38;34.53;100515.24;104543;1267;63741;-49
2024/01/01 02:04:45;;;;;;;19.10;8.20;;;;;;;13.39;34.64;100506.92;104546;1269;246971;-48
2024/01/01 02:07:12;;;;;;;15.80;8.40;;;;;;;13.40;34.71;100506.10;104672;1268;59290;-48
2024/01/01 02:09:40;;;;;;;16.40;7.30;;;;;;;13.55;34.71;100504.63;104861;1264;62095;-47
2024/01/01 02:12:08;;;;;;;10.30;4.90;;;;;;;13.64;34.63;100498.35;104661;1264;61424;-48
2024/01/01 02:14:36;;;;;;;10.90;3.50;;;;;;;13.63;34.61;100493.02;105031;1264;62503;-48
2024/01/01 02:17:04;;;;;;;15.80;5.70;;;;;;;13.70;34.61;100487.25;104519;1264;59760;-47
2024/01/01 02:19:31;;;;;;;12.60;4.50;;;;;;;13.83;34.56;100487.64;104728;1262;59772;-48
2024/01/01 02:22:01;;;;;;;11.60;5.80;;;;;;;13.92;34.55;100489.30;105900;1251;62880;-48
2024/01/01 02:24:29;;;;;;;14.40;5.70;;;;;;;14.02;34.51;100484.08;105482;1256;60136;-48
2024/01/01 02:26:57;;;;;;;20.70;6.60;;;;;;;14.09;34.51;100479.00;106003;1254;64230;-49
2024/01/01 02:29:25;;;;;;;14.60;6.20;;;;;;;14.13;34.48;100471.77;106023;1251;59714;-48
2024/01/01 02:31:52;;;;;;;17.30;7.50;;;;;;;14.15;34.46;100462.98;105364;1257;59634;-48
2024/01/01 02:34:22;;;;;;;15.20;7.10;;;;;;;14.16;34.47;100458.23;105364;1257;63195;-48
2024/01/01 02:36:49;;;;;;;16.30;7.20;;;;;;;14.20;34.49;100454.92;105479;1256;60165;-48
2024/01/01 02:39:17;;;;;;;12.40;5.70;;;;;;;14.20;34.68;100454.16;105469;1254;63747;-49
2024/01/01 02:41:44;;;;;;;13.40;7.50;;;;;;;14.12;34.75;100452.65;105445;1256;59802;-47
2024/01/01 02:44:12;;;;;;;10.30;5.60;;;;;;;14.08;34.73;100449.11;105507;1257;59631;-47
2024/01/01 02:46:40;;;;;;;12.20;7.20;;;;;;;14.06;34.83;100442.45;105670;1256;64112;-48
2024/01/01 02:49:07;;;;;;;14.40;6.80;;;;;;;14.05;35.00;100441.23;105638;1253;60276;-49
2024/01/01 02:51:35;;;;;;;12.30;7.30;;;;;;;14.08;35.14;100437.98;105816;1256;62558;-47
2024/01/01 02:54:02;;;;;;;11.10;5.70;;;;;;;14.12;35.18;100427.96;105341;1251;59767;-48
2024/01/01 02:56:30;;;;;;;9.10;4.40;;;;;;;14.19;35.18;100423.38;105950;1256;59657;-48
2024/01/01 02:58:58;;;;;;;9.50;3.40;;;;;;;14.34;35.11;100423.09;105362;1251;64184;-47
2024/01/01 03:01:25;;;;;;;11.60;4.70;;;;;;;14.48;35.15;100421.54;105444;1257;72067;-49
2024/01/01 03:03:54;;;;;;;11.40;5.00;;;;;;;14.58;35.08;100412.17;105330;1254;64059;-49
2024/01/01 03:06:22;;;;;;;11.00;4.60;;;;;;;14.69;34.91;100402.91;106055;1254;59856;-49
2024/01/01 03:08:49;;;;;;;10.90;5.30;;;;;;;14.79;34.90;100401.95;105487;1256;60533;-49
2024/01/01 03:11:17;;;;;;;13.80;5.20;;;;;;;14.86;34.84;100402.01;105383;1251;64588;-48
2024/01/01 03:13:45;;;;;;;9.70;4.40;;;;;;;14.90;34.87;100397.77;105509;1254;61366;-48
2024/01/01 03:16:13;;;;;;;10.50;4.70;;;;;;;14.93;34.71;100388.81;105380;1253;62435;-49
2024/01/01 03:18:40;;;;;;;11.70;5.20;;;;;;;14.90;34.72;100389.77;105499;1254;59667;-49
2024/01/01 03:21:08;;;;;;;10.00;4.90;;;;;;;14.88;34.76;100386.47;105353;1260;59604;-49
2024/01/01 03:23:36;;;;;;;8.10;4.00;;;;;;;14.85;34.81;100384.44;105387;1251;62818;-49
2024/01/01 03:26:03;;;;;;;12.80;5.90;;;;;;;14.84;34.75;100379.23;105489;1251;61368;-48
2024/01/01 03:28:31;;;;;;;16.30;7.50;;;;;;;14.83;34.71;100376.73;105420;1254;63861;-49
2024/01/01 03:31:00;;;;;;;11.80;5.20;;;;;;;14.79;34.76;100373.74;105953;1253;59726;-49
2024/01/01 03:33:29;;;;;;;9.50;5.20;;;;;;;14.77;34.77;100370.45;105960;1254;59689;-50
2024/01/01 03:35:57;;;;;;;14.30;6.30;;;;;;;14.76;34.92;100370.31;105874;1254;62890;-49
2024/01/01 03:38:24;;;;;;;12.10;5.50;;;;;;;14.76;35.04;100372.40;106329;1251;61856;-49
2024/01/01 03:40:52;;;;;;;10.60;4.60;;;;;;;14.83;35.12;100370.88;105372;1254;64276;-49
2024/01/01 03:43:21;;;;;;;10.20;3.40;;;;;;;14.92;34.91;100366.95;105352;1255;59717;-49
2024/01/01 03:45:49;;;;;;;8.50;3.20;;;;;;;14.98;34.84;100370.79;105318;1251;59829;-49
2024/01/01 03:48:16;;;;;;;12.50;3.60;;;;;;;15.06;34.88;100366.85;105506;1254;64236;-50
2024/01/01 03:50:44;;;;;;;11.40;5.30;;;;;;;15.12;34.87;100362.42;105332;1254;61383;-49
2024/01/01 03:53:12;;;;;;;8.90;4.60;;;;;;;15.17;34.78;100354.67;105356;1258;63752;-48
2024/01/01 03:55:40;;;;;;;12.10;5.80;;;;;;;15.22;34.86;100351.08;105374;1254;59726;-59
2024/01/01 03:58:08;;;;;;;10.70;4.60;;;;;;;15.28;34.75;100347.04;105356;1259;59689;-59
2024/01/01 04:00:37;;;;;;;9.80;4.20;;;;;;;15.30;34.64;100345.38;105707;1256;64102;-60
2024/01/01 04:03:05;;;;;;;12.40;4.80;;;;;;;15.33;34.49;100346.36;105682;1254;61388;-60
2024/01/01 04:05:32;;;;;;;12.10;4.90;;;;;;;15.31;34.45;100345.95;105322;1254;63833;-59
2024/01/01 04:08:00;;;;;;;9.60;5.10;;;;;;;15.30;34.46;100346.48;105272;1257;59324;-59
2024/01/01 04:10:28;;;;;;;9.20;5.30;;;;;;;15.26;34.41;100338.52;105797;1259;59718;-62
2024/01/01 04:12:55;;;;;;;8.60;4.20;;;;;;;15.19;34.34;100335.68;105410;1257;64185;-61
2024/01/01 04:15:23;;;;;;;11.90;5.50;;;;;;;15.14;34.35;100326.66;105333;1254;61411;-59
2024/01/01 04:17:51;;;;;;;13.90;5.50;;;;;;;15.08;34.37;100325.68;105441;1256;64251;-61
2024/01/01 04:20:19;;;;;;;13.10;5.10;;;;;;;15.03;34.58;100316.97;105314;1254;59721;-63
2024/01/01 04:22:51;;;;;;;11.50;4.60;;;;;;;14.95;34.69;100307.48;105229;1253;59801;-60
2024/01/01 04:25:19;;;;;;;14.30;5.50;;;;;;;14.92;34.72;100302.88;105439;1259;64093;-60
2024/01/01 04:27:47;;;;;;;8.40;2.80;;;;;;;14.93;34.74;100298.14;105263;1256;60096;-61
2024/01/01 04:30:14;;;;;;;9.10;3.30;;;;;;;14.99;34.79;100295.25;105394;1254;63739;-61
2024/01/01 04:32:42;;;;;;;8.70;2.80;;;;;;;15.05;34.85;100295.16;105222;1259;59635;-59
2024/01/01 04:35:10;;;;;;;9.80;3.30;;;;;;;15.14;34.70;100300.46;105262;1259;59631;-60
2024/01/01 04:37:38;;;;;;;11.10;3.90;;;;;;;15.31;34.59;100297.33;105396;1254;62931;-62
2024/01/01 04:40:06;;;;;;;10.70;4.90;;;;;;;15.47;34.39;100292.02;105296;1253;62291;-62
2024/01/01 04:42:34;;;;;;;16.20;9.60;;;;;;;15.54;34.42;100284.63;105590;1257;66252;-63
2024/01/01 04:45:01;;;;;;;9.80;3.90;;;;;;;15.55;34.33;100278.17;105721;1257;59794;-62
2024/01/01 04:47:29;;;;;;;9.80;4.30;;;;;;;15.54;34.26;100274.75;105339;1256;60010;-64
2024/01/01 04:49:56;;;;;;;10.40;3.70;;;;;;;15.53;34.27;100274.48;105534;1257;64179;-62
2024/01/01 04:52:24;;;;;;;10.50;3.90;;;;;;;15.51;34.25;100270.73;105968;1251;61348;-59
2024/01/01 04:54:56;;;;;;;10.40;4.40;;;;;;;15.48;34.22;100262.10;105414;1251;62481;-60
2024/01/01 04:57:23;;;;;;;11.80;3.90;;;;;;;15.44;34.24;100261.41;106150;1251;59722;-59
2024/01/01 04:59:51;;;;;;;13.20;5.30;;;;;;;15.36;34.28;100258.85;105385;1257;59738;-59
2024/01/01 05:02:18;;;;;;;9.90;4.80;;;;;;;15.32;34.27;100258.04;105444;1257;64098;-58
2024/01/01 05:04:46;;;;;;;8.80;3.40;;;;;;;15.28;34.28;100259.33;105375;1251;60279;-59
2024/01/01 05:07:14;;;;;;;10.50;5.10;;;;;;;15.25;34.36;100256.30;105484;1254;63698;-59
2024/01/01 05:09:44;;;;;;;11.10;3.90;;;;;;;15.22;34.43;100253.16;105403;1257;60576;-59
2024/01/01 05:12:13;;;;;;;9.20;3.50;;;;;;;15.20;34.58;100256.77;105425;1258;59721;-61
2024/01/01 05:14:41;;;;;;;5.80;2.70;;;;;;;15.25;34.54;100254.35;105804;1251;62810;-61
2024/01/01 05:17:08;;;;;;;10.50;3.00;;;;;;;15.32;34.51;100249.05;105350;1257;60409;-61
2024/01/01 05:19:36;;;;;;;12.50;3.40;;;;;;;15.38;34.56;100242.36;105344;1254;63744;-60
2024/01/01 05:22:04;;;;;;;6.00;2.60;;;;;;;15.49;34.33;100232.31;105476;1253;59719;-61
2024/01/01 05:24:32;;;;;;;8.90;3.60;;;;;;;15.58;34.29;100226.55;106004;1254;59698;-61
2024/01/01 05:27:00;;;;;;;8.10;2.60;;;;;;;15.68;34.17;100223.54;105778;1252;64093;-60
2024/01/01 05:29:29;;;;;;;8.50;4.00;;;;;;;15.74;34.18;100223.84;106005;1251;61426;-59
2024/01/01 05:31:56;;;;;;;11.40;3.60;;;;;;;15.78;34.03;100220.27;106011;1254;62427;-60
2024/01/01 05:34:24;;;;;;;8.10;2.70;;;;;;;15.70;34.06;100217.84;105990;1253;60306;-62
2024/01/01 05:36:51;;;;;;;8.40;4.30;;;;;;;15.63;34.20;100215.50;105426;1251;60673;-60
2024/01/01 05:39:19;;;;;;;9.50;3.30;;;;;;;15.61;34.20;100222.41;105413;1257;64132;-59
2024/01/01 05:41:46;;;;;;;9.70;4.60;;;;;;;15.66;34.09;100225.25;105527;1251;61557;-59
2024/01/01 05:44:14;;;;;;;9.00;3.70;;;;;;;15.69;34.00;100220.42;105417;1254;63762;-59
2024/01/01 05:46:42;;;;;;;12.00;4.20;;;;;;;15.66;33.95;100220.98;105596;1257;59583;-59
2024/01/01 05:49:09;;;;;;;11.60;4.40;;;;;;;15.60;33.97;100218.06;105447;1257;59654;-59
2024/01/01 05:51:37;;;;;;;9.70;3.40;;;;;;;15.43;34.09;100220.48;105402;1251;64173;-58
2024/01/01 05:54:04;;;;;;;11.80;4.80;;;;;;;15.32;34.39;100217.40;105529;1251;61878;-59
2024/01/01 05:56:32;;;;;;;9.60;3.70;;;;;;;15.27;34.50;100216.65;105852;1255;63842;-59
2024/01/01 05:58:59;;;;;;;7.40;3.30;;;;;;;15.27;34.54;100217.61;105491;1251;60564;-58
2024/01/01 06:01:27;;;;;;;8.70;2.70;;;;;;;15.32;34.48;100222.05;105410;1258;60338;-58
2024/01/01 06:03:55;;;;;;;8.40;3.10;;;;;;;15.38;34.50;100222.11;105399;1251;64906;-58
2024/01/01 06:06:25;;;;;;;7.50;3.30;;;;;;;15.46;34.52;100221.85;105349;1257;61516;-58
2024/01/01 06:08:53;;;;;;;8.60;3.90;;;;;;;15.54;34.42;100222.39;106085;1254;63675;-57
2024/01/01 06:11:20;;;;;;;8.70;3.20;;;;;;;15.65;34.38;100226.17;105355;1253;60465;-58
2024/01/01 06:13:48;;;;;;;7.00;3.40;;;;;;;15.75;34.48;100223.91;105443;1251;60593;-58
2024/01/01 06:16:16;;;;;;;13.10;8.60;;;;;;;15.84;34.44;100226.60;105427;1251;63657;-59
2024/01/01 06:18:44;;;;;;;8.10;3.40;;;;;;;15.89;34.29;100232.03;105433;1257;68738;-56
2024/01/01 06:21:12;;;;;;;8.70;3.80;;;;;;;15.93;34.03;100234.45;105384;1254;64471;-57
2024/01/01 06:23:44;;;;;;;9.20;3.40;;;;;;;15.91;34.02;100238.96;105694;1254;60451;-58
2024/01/01 06:26:12;;;;;;;9.10;4.40;;;;;;;15.88;34.11;100236.73;105560;1251;60598;-57
2024/01/01 06:28:40;;;;;;;9.20;3.60;;;;;;;15.88;33.98;100228.08;105683;1251;63606;-60
2024/01/01 06:31:08;;;;;;;8.30;3.90;;;;;;;15.84;33.87;100222.30;105767;1257;60484;-59
2024/01/01 06:33:35;;;;;;;9.70;3.50;;;;;;;15.78;33.93;100219.19;105423;1257;62457;-58
2024/01/01 06:36:04;;;;;;;9.60;3.30;;;;;;;15.72;34.06;100216.98;105368;1254;60568;-57
2024/01/01 06:38:31;;;;;;;8.10;3.20;;;;;;;15.70;34.11;100216.71;105921;1253;60482;-59
2024/01/01 06:40:58;;;;;;;8.10;4.40;;;;;;;15.67;34.17;100215.55;105512;1256;65088;-58
2024/01/01 06:43:26;;;;;;;8.80;2.90;;;;;;;15.63;34.30;100214.43;105484;1257;60433;-59
2024/01/01 06:45:54;;;;;;;7.80;3.20;;;;;;;15.64;34.27;100210.71;106105;1257;62794;-60
2024/01/01 06:48:22;;;;;;;5.40;1.90;;;;;;;15.72;34.27;100207.64;105462;1254;61890;-60
2024/01/01 06:50:49;;;;;;;6.00;2.00;;;;;;;15.80;34.22;100202.23;105489;1257;60555;-59
2024/01/01 06:53:17;;;;;;;8.30;3.80;;;;;;;15.87;34.26;100199.36;105542;1257;64873;-59
2024/01/01 06:55:44;;;;;;;7.10;2.80;;;;;;;15.93;34.17;100192.88;105462;1251;61899;-62
2024/01/01 06:58:12;;;;;;;8.10;3.80;;;;;;;15.99;34.06;100186.63;105622;1257;63799;-60
2024/01/01 07:00:39;;;;;;;13.90;7.80;;;;;;;16.01;34.10;100186.91;105550;1254;60895;-59
2024/01/01 07:03:07;;;;;;;9.00;3.20;;;;;;;16.04;34.15;100184.83;105449;1254;60555;-58
2024/01/01 07:05:35;;;;;;;13.60;7.90;;;;;;;16.08;34.03;100180.10;105388;1257;64946;-57
2024/01/01 07:08:03;;;;;;;8.30;3.80;;;;;;;16.07;33.97;100177.21;105816;1251;61317;-57
2024/01/01 07:10:32;;;;;;;8.60;2.90;;;;;;;16.04;34.08;100171.80;105891;1251;62467;-56
2024/01/01 07:12:59;;;;;;;7.70;4.00;;;;;;;15.98;34.03;100171.52;105331;1254;60468;-57
2024/01/01 07:15:27;;;;;;;9.60;3.00;;;;;;;15.96;34.02;100171.81;105460;1251;60438;-58
2024/01/01 07:17:54;;;;;;;9.10;4.20;;;;;;;15.94;34.05;100170.13;105344;1259;65396;-57
2024/01/01 07:20:27;;;;;;;7.00;2.70;;;;;;;15.91;34.10;100164.05;105376;1254;61370;-57
2024/01/01 07:22:54;;;;;;;12.70;3.90;;;;;;;15.90;34.18;100159.27;105376;1259;63786;-57
2024/01/01 07:25:22;;;;;;;10.70;4.20;;;;;;;15.90;34.25;100157.17;105357;1259;60478;-57
2024/01/01 07:27:50;;;;;;;5.80;2.40;;;;;;;15.97;34.27;100150.76;106118;1257;60399;-58
2024/01/01 07:30:18;;;;;;;11.40;7.00;;;;;;;16.08;34.25;100143.00;105525;1251;64951;-58
2024/01/01 07:32:46;;;;;;;10.50;2.10;;;;;;;16.25;34.12;100139.59;105542;1251;61926;-57
2024/01/01 07:35:13;;;;;;;6.90;2.30;;;;;;;16.41;34.03;100135.36;105339;1254;63732;-58
2024/01/01 07:37:41;;;;;;;11.60;7.30;;;;;;;16.52;34.01;100129.89;105429;1256;60513;-60
2024/01/01 07:40:10;;;;;;;9.60;3.40;;;;;;;16.64;33.94;100129.11;105519;1256;60492;-60
2024/01/01 07:42:37;;;;;;;10.60;3.60;;;;;;;16.79;33.97;100123.05;105745;1251;64942;-56
2024/01/01 07:45:05;;;;;;;8.90;3.70;;;;;;;16.86;33.79;100115.65;105456;1251;61484;-55
2024/01/01 07:47:33;;;;;;;12.50;7.90;;;;;;;16.86;33.67;100112.02;105910;1254;64222;-57
2024/01/01 07:50:00;;;;;;;8.40;3.00;;;;;;;16.88;33.68;100110.19;105483;1251;60568;-56
2024/01/01 07:52:28;;;;;;;7.60;2.80;;;;;;;16.91;33.61;100111.31;105364;1252;61062;-56
2024/01/01 07:54:57;;;;;;;9.70;3.50;;;;;;;16.95;33.62;100112.30;105930;1254;64881;-55
2024/01/01 07:57:25;;;;;;;8.10;3.10;;;;;;;16.95;33.56;100108.64;105924;1251;61497;-55
2024/01/01 07:59:55;;;;;;;8.90;4.20;;;;;;;16.92;33.54;100104.17;105434;1254;62647;-55
2024/01/01 08:02:23;;;;;;;12.20;4.60;;;;;;;16.93;33.51;100100.70;106062;1254;60457;-55
2024/01/01 08:04:53;;;;;;;11.70;4.70;;;;;;;16.95;33.55;100096.79;105423;1260;60409;-55
2024/01/01 08:07:24;;;;;;;8.50;4.40;;;;;;;16.96;33.66;100093.66;105452;1257;64970;-56
2024/01/01 08:09:52;;;;;;;12.20;8.70;;;;;;;16.97;33.60;100089.83;105537;1251;61342;-46
2024/01/01 08:12:20;;;;;;;7.40;3.00;;;;;;;17.02;33.45;100087.09;105479;1254;63835;-50
2024/01/01 08:14:48;;;;;;;9.40;3.60;;;;;;;17.11;33.45;100087.55;105423;1251;60458;-51
2024/01/01 08:17:15;;;;;;;8.40;3.90;;;;;;;17.18;33.46;100080.88;105629;1251;60616;-56
2024/01/01 08:19:43;;;;;;;15.50;8.80;;;;;;;17.29;33.41;100078.20;105613;1254;67292;-55
2024/01/01 08:22:11;;;;;;;8.00;3.60;;;;;;;17.36;33.46;100073.88;105392;1259;61465;-57
2024/01/01 08:24:39;;;;;;;8.40;4.10;;;;;;;17.33;33.54;100070.73;105382;1251;62458;-57
2024/01/01 08:27:07;;;;;;;15.10;9.60;;;;;;;17.32;33.54;100076.98;105454;1254;60549;-56
2024/01/01 08:29:34;;;;;;;12.90;4.60;;;;;;;17.33;33.51;100076.02;105778;1251;60479;-56
2024/01/01 08:32:03;;;;;;;9.40;5.10;;;;;;;17.34;33.49;100069.70;105469;1251;64923;-57
2024/01/01 08:34:31;;;;;;;16.20;10.00;;;;;;;17.37;33.55;100061.24;105890;1258;60636;-56
2024/01/01 08:37:01;;;;;;;10.00;4.20;;;;;;;17.38;33.49;100051.66;105450;1254;63728;-56
2024/01/01 08:39:29;;;;;;;10.90;5.30;;;;;;;17.39;33.57;100046.60;105929;1259;60555;-54
2024/01/01 08:41:56;;;;;;;15.10;10.30;;;;;;;17.38;33.48;100040.52;106004;1254;60541;-54
2024/01/01 08:44:24;;;;;;;7.00;4.10;;;;;;;17.36;33.55;100032.83;105353;1259;64928;-56
2024/01/01 08:46:52;;;;;;;19.40;10.30;;;;;;;17.43;33.49;100027.98;105424;1257;61334;-55
2024/01/01 08:49:21;;;;;;;6.70;2.40;;;;;;;17.54;33.32;100023.42;105460;1257;62456;-55
2024/01/01 08:51:49;;;;;;;16.30;9.80;;;;;;;17.64;33.26;100025.77;106174;1254;60530;-55
2024/01/01 08:54:18;;;;;;;9.60;3.60;;;;;;;17.73;33.21;100030.77;105369;1255;60373;-55
2024/01/01 08:56:46;;;;;;;11.90;5.80;;;;;;;17.88;33.31;100028.94;105491;1254;64867;-54
2024/01/01 08:59:15;;;;;;;15.10;10.10;;;;;;;17.99;33.04;100028.73;105464;1259;61349;-55
2024/01/01 09:01:46;;;;;;;15.00;10.60;;;;;;;18.08;32.91;100024.65;105496;1256;63788;-55
2024/01/01 09:04:14;;;;;;;8.60;4.10;;;;;;;18.12;32.83;100019.15;105476;1254;60571;-56
2024/01/01 09:06:41;;;;;;;16.30;10.80;;;;;;;18.20;32.73;100012.98;105362;1259;60451;-57
2024/01/01 09:09:11;;;;;;;11.20;5.30;;;;;;;18.24;32.66;100007.66;105565;1257;76074;-57
2024/01/01 09:11:39;;;;;;;18.30;11.60;;;;;;;18.18;32.62;100001.77;105686;1254;61376;-57
2024/01/01 09:14:06;;;;;;;11.00;4.70;;;;;;;18.14;32.67;99995.91;105417;1254;63693;-58
2024/01/01 09:16:36;;;;;;;16.50;10.50;;;;;;;18.18;32.66;100005.27;105395;1256;60558;-55
2024/01/01 09:19:04;;;;;;;9.40;3.40;;;;;;;18.27;32.48;100007.46;105680;1254;60834;-55
2024/01/01 09:21:32;;;;;;;14.70;10.80;;;;;;;18.37;32.57;100001.30;105312;1254;66314;-55
2024/01/01 09:24:02;;;;;;;9.10;4.30;;;;;;;18.49;32.61;99994.61;105375;1258;60475;-56
2024/01/01 09:26:30;;;;;;;16.50;11.40;;;;;;;18.59;32.43;99995.15;105823;1254;63665;-55
2024/01/01 09:28:58;;;;;;;16.50;11.50;;;;;;;18.62;32.34;99990.56;106001;1255;60380;-56
2024/01/01 09:31:26;;;;;;;15.30;11.40;;;;;;;18.66;32.47;99983.15;105944;1259;60472;-55
2024/01/01 09:34:00;;;;;;;8.00;4.30;;;;;;;18.71;32.26;99982.36;106030;1254;63674;-55
2024/01/01 09:36:29;;;;;;;15.50;11.70;;;;;;;18.72;32.34;99974.54;105861;1258;61768;-56
2024/01/01 09:38:58;;;;;;;12.90;5.80;;;;;;;18.77;32.23;99970.12;105902;1258;63773;-56
2024/01/01 09:41:26;;;;;;;16.70;11.50;;;;;;;18.80;32.09;99963.73;105974;1254;60439;-55
2024/01/01 09:43:54;;;;;;;9.70;4.40;;;;;;;18.77;32.16;99952.14;105399;1254;60484;-56
2024/01/01 09:46:23;;;;;;;15.80;11.80;;;;;;;18.74;32.21;99946.27;106158;1251;63641;-57
2024/01/01 09:48:50;;;;;;;12.50;5.60;;;;;;;18.70;32.33;99951.84;105138;1254;61542;-58
2024/01/01 09:51:18;;;;;;;10.70;4.10;;;;;;;18.76;32.24;99951.55;105065;1259;63732;-58
2024/01/01 09:53:45;;;;;;;17.40;11.00;;;;;;;18.88;32.04;99950.14;105324;1254;60517;-57
2024/01/01 09:56:13;;;;;;;19.10;12.20;;;;;;;18.97;31.96;99951.69;105271;1254;60562;-57
2024/01/01 09:58:41;;;;;;;9.60;4.70;;;;;;;19.01;32.01;99944.84;105598;1259;64883;-57
2024/01/01 10:01:13;;;;;;;15.40;11.10;;;;;;;19.02;31.78;99941.25;106323;1254;61418;-56
2024/01/01 10:03:41;;;;;;;14.50;11.20;;;;;;;18.99;31.66;99933.83;105449;1254;63759;-58
2024/01/01 10:06:10;;;;;;;12.60;5.60;;;;;;;18.95;31.79;99926.11;106187;1259;60600;-57
2024/01/01 10:08:38;;;;;;;16.60;11.70;;;;;;;18.92;31.60;99926.66;107071;1254;60478;-57
2024/01/01 10:11:17;;;;;;;15.10;10.90;;;;;;;18.86;31.63;99924.22;105375;1259;64879;-65
2024/01/01 10:13:46;;;;;;;11.20;5.20;;;;;;;18.81;31.68;99923.36;105420;1254;61356;-57
2024/01/01 10:16:26;;;;;;;14.80;11.00;;;;;;;18.78;31.77;99926.05;105473;1254;64228;-57
2024/01/01 10:18:57;;;;;;;9.80;4.70;;;;;;;18.76;31.80;99922.59;105272;1259;60469;-58
2024/01/01 10:21:34;;;;;;;14.20;10.30;;;;;;;18.78;31.47;99922.00;105435;1259;60426;-57
2024/01/01 10:24:12;;;;;;;18.00;11.70;;;;;;;18.78;31.64;99915.56;105736;1259;63651;-57
2024/01/01 10:26:58;;;;;;;9.90;5.60;;;;;;;18.80;31.54;99905.17;109149;1253;61645;-55
2024/01/01 10:29:26;;;;;;;16.90;10.80;;;;;;;18.81;31.65;99897.48;105694;1254;63692;-57
2024/01/01 10:31:54;;;;;;;11.50;4.90;;;;;;;18.85;31.64;99897.92;105105;1254;60671;-57
2024/01/01 10:34:22;;;;;;;16.00;11.50;;;;;;;18.87;31.70;99894.55;105098;1257;60451;-57
2024/01/01 10:36:50;;;;;;;16.10;12.60;;;;;;;18.92;31.65;99888.23;104965;1255;63630;-58
2024/01/01 10:39:18;;;;;;;10.40;4.00;;;;;;;18.96;31.68;99882.36;108589;1254;60105;-58
2024/01/01 10:41:47;;;;;;;20.00;14.80;;;;;;;18.96;31.44;99876.28;105095;1257;63678;-58
2024/01/01 10:44:14;;;;;;;22.00;17.60;;;;;;;18.92;31.48;99867.52;105253;1257;60508;-56
2024/01/01 10:46:46;;;;;;;14.30;6.10;;;;;;;18.87;31.47;99858.73;105393;1259;60659;-55
2024/01/01 10:49:22;;;;;;;16.30;11.40;;;;;;;18.89;31.39;99854.50;105244;1254;65341;-58
2024/01/01 10:52:27;;;;;;;11.80;4.40;;;;;;;18.94;31.44;99848.66;105356;1259;62185;-55
2024/01/01 10:55:05;;;;;;;16.20;11.50;;;;;;;18.96;31.34;99846.42;105955;1254;64243;-56
2024/01/01 10:57:45;;;;;;;20.10;12.30;;;;;;;18.93;31.39;99844.08;105414;1254;60557;-58
2024/01/01 11:00:22;;;;;;;10.30;4.20;;;;;;;18.88;31.31;99849.80;105449;1259;60453;-58
2024/01/01 11:02:49;;;;;;;17.20;12.30;;;;;;;18.83;31.40;99851.34;105546;1254;64897;-59
2024/01/01 11:05:17;;;;;;;10.90;5.20;;;;;;;18.80;31.40;99843.45;105542;1259;60629;-60
2024/01/01 11:07:51;;;;;;;16.80;11.80;;;;;;;18.74;31.36;99837.30;105376;1256;63904;-60
2024/01/01 11:10:35;;;;;;;10.20;4.40;;;;;;;18.71;31.41;99829.39;105475;1255;60555;-58
2024/01/01 11:13:04;;;;;;;17.00;12.30;;;;;;;18.65;31.52;99829.16;105517;1257;60456;-58
2024/01/01 11:15:40;;;;;;;11.60;6.30;;;;;;;18.59;31.64;99828.64;105837;1254;63634;-59
2024/01/01 11:18:15;;;;;;;11.80;5.70;;;;;;;18.57;31.70;99823.46;105717;1254;61875;-58